Foulées de MENFOUEST   Dimanche 03 Septembre 2006    
  Nota: ce classement attribue les points pour cette course.    
  Pour le classement du challenge, ces points ne seront validés que si le coureur est inscrit conformément
  au règlement, c'est à dire au plus tard la veille de la compétition.    
Place NOM Prénom Sexe Categ Club Temps Points
Challenge
1 MOUMOU El Hadi M V1 ACR LOCMINE 00:35:42 0,5208
2 BRELIVET Patrick M SE COURIR a CHATEAULIN 00:35:43 1,0417
3 CORNEC Marc M V1 SPORT 2000 DOUARNENEZ 00:36:24 1,5625
4 KERFENDEL Bruno M V1 Quimper 00:38:01 2,0833
5 PROVOST Joël M V1 QA  QUIMPER ATHLETISME 00:38:17 2,6042
6 KEROUREDAN Christian M SE Kerlaz 00:38:20 3,1250
7 PONZA Eric M V1 SPORT 2000 CHATEAULIN 00:38:42 3,6458
8 PORTAL Jean Luc M SE Jogging Club Douffine (Pont de Buis) 00:38:52 4,1667
9 SOULAINE Patrick M SE MOULIN BRETON 00:38:55 4,6875
10 BARGAIN Erwan M SE COURIR a PLOMEUR 00:39:01 5,2083
11 STEPHAN Yann M SE REDERIEN AR BRADEN 00:39:13 5,7292
12 LE GOC Nicolas M SE FOULEES VARZECOISES 00:39:16 6,2500
13 COTTEN Ronan M SE Courir avec BRIN d'AVOINE 00:39:23 6,7708
14 KERVAHUT Jean Claude M V1 QA  QUIMPER ATHLETISME 00:39:31 7,2917
15 SALAÜN Christophe M SE GALOUPERIEN BRIEC 00:39:33 7,8125
16 LE COQ ALAIN M V1 CAB 00:39:48 8,3333
17 LE VIOL Sylvain M CA QA  QUIMPER ATHLETISME 00:40:10 8,8542
18 LE DAIN Nicolas M V1 Prefecture 29 00:40:19 9,3750
19 GILBERT David M SE pont l'abbé 00:40:22 9,8958
20 PASQUIER Karine F SE QA  QUIMPER ATHLETISME 00:40:30 10,4167
21 PERON Jean-Jacques M SE plobannalec 00:40:31 10,9375
22 JAVER PATRICE M V1 douarnenez 00:40:50 11,4583
23 GUELLEC Bernard M V1 CAB 00:41:03 11,9792
24 TYMEN Hervé M V1 SEMELLES DOUARNENEZ 00:41:11 12,5000
25 JOLIVET Jean Michel M SE QA  QUIMPER ATHLETISME 00:41:18 13,0208
26 LE GRAND André M V1 QA  QUIMPER ATHLETISME 00:41:20 13,5417
27 FURIC Yannick M SE   00:41:44 14,0625
28 NORMANT Vincent M CA QA  QUIMPER ATHLETISME 00:42:11 14,5833
29 LE TORREC JEAN RENE M V1 TREGUNC 00:42:12 15,1042
30 PONZA ISABELLE F V1 SPORT 2000 CHATEAULIN 00:42:19 15,6250
31 LE CRANN Pierre M V3 ULAC 00:42:33 16,1458
32 LE MOAN Patrick M V2 ULAC 00:42:40 16,6667
33 DIVERRES Matthieu M ES Club nautique brestois 00:42:41 17,1875
34 GUELLEC Dewi M ES LE GUILVINEC 00:42:43 17,7083
35 COSTAOUEC Benoit M SE Courir avec BRIN d'AVOINE 00:42:46 18,2292
36 MADEZO MARC M V1 douarnenez 00:42:59 18,7500
37 GAUTIER Fabrice M SE ULAC 00:43:00 19,2708
38 PEILLET Georges M SE pont l'abbé 00:43:06 19,7917
39 LE GALL Bruno M SE ACC Port Louis 00:43:13 20,3125
40 POHIN Gweltaz M SE SEMELLES DE VENT BOHARS 00:43:17 20,8333
41 KERMOUET Dominique M SE COURIR a PLOMEUR 00:43:21 21,3542
42 COULLIEC Yannick M SE briec 00:43:22 21,8750
43 GAUGAIL Jean René M V1 pont aven 00:43:29 22,3958
44 LE BEC Gilbert M V1 Prefecture 29 00:43:33 22,9167
45 GILBERT Marc M SE quimper 00:43:37 23,4375
46 KERVELLEC Jean Marc M V1   00:43:44 23,9583
47 SIDER Laouic M SE SEMELLES DOUARNENEZ 00:43:49 24,4792
48 GUEZENNEC Pierre M V3 Amicale Préfecture 00:44:00 25,0000
49 GENTRIC JEAN RENE M V1 Prefecture 29 00:44:01 25,5208
50 LE LAY Jean M V2 PLOMELIN 00:44:01 26,0417
51 LE GUEN Jerome M SE REDERIEN AR BRADEN 00:44:11 26,5625
52 LABORY Gérard M V2   00:44:13 27,0833
53 LE VIOL Bernard M V1 Quimper 00:44:16 27,6042
54 FAVENNEC Olivier M SE penmarch 00:44:19 28,1250
55 FALIGON Christophe M SE QA  QUIMPER ATHLETISME 00:44:23 28,6458
56 LE BRAS Jean Claude M SE CMBK Plounevez Lochrist 00:44:29 29,1667
57 THOMAS Frederic M SE Courir avec BRIN d'AVOINE 00:44:39 29,6875
58 CANN FRANCIS M V1 FOULEES CONCARNOISES 00:44:43 30,2083
59 PORHEL Gael M SE YANOO.net 00:44:46 30,7292
60 RANNOU Jean-Jacques M V1 FOULEES VARZECOISES 00:44:49 31,2500
61 FRANCESHIN Bruno M SE FOULEES VARZECOISES 00:44:59 31,7708
62 MARTIN RENE M V1 REDERIEN AR BRADEN 00:45:09 32,2917
63 ALVEZ DA COSTA Patrice M SE   00:45:11 32,8125
64 SOLLIEC Gregory M SE Quimper 00:45:12 33,3333
65 DUPUY Stephane M SE Quimper 00:45:13 33,8542
66 SAOZANET Stephane M SE COATARMOR 00:45:15 34,3750
67 DANIEL Patrice M SE ERGE VRAS court 00:45:36 34,8958
68 SPARAPAN Denis M V2 CAB 00:45:46 35,4167
69 BAJEUX Jean-Yves M V2 REDERIEN AR BRADEN 00:45:49 35,9375
70 LE BLEIS David M SE COURIR a PLOMEUR 00:45:54 36,4583
71 HELIAS Anthony M SE pont l'abbé basket 00:46:01 36,9792
72 LE BOEDEC Arnaud M SE COURIR a CHATEAULIN 00:46:03 37,5000
73 QUEMENER Pascal M V1 PLOZEVET 00:46:28 38,0208
74 PHILIPPE Joel M V1 REDERIEN AR BRADEN 00:46:38 38,5417
75 LE TEUFF HERVE M SE FOULEES CONCARNOISES 00:46:40 39,0625
76 ROUMIER Gérard M V2 Plogastel Saint Germain 00:46:43 39,5833
77 MELLIER Patrick M V1 Quimper 00:46:46 40,1042
78 THOMAS Cédric M ES quimper 00:46:48 40,6250
79 PIEDNOEL Baptiste M SE ARDISSA 00:46:56 41,1458
80 TOUCHARD Nicolas M SE Quimper 00:46:58 41,6667
81 CHARLOT Anne Marie F V2 loctudy 00:46:59 42,1875
82 SALINIERE Eric M SE   00:47:09 42,7083
83 PERU Eric M V1 concarneau 00:47:19 43,2292
84 FLAUX Patrick M V1 ERGE VRAS court 00:47:29 43,7500
85 LE CORRE REMI M V1 quimper 00:47:34 44,2708
86 POUPON Yoann M ES quimper 00:47:37 44,7917
87 DUVOLLET DAVID M SE REDERIEN AR BRADEN 00:47:51 45,3125
88 RANNOU Daniel M V2 Amicale CG29 00:47:52 45,8333
89 FORLAY Fréderic M SE La Foret Fouesnant 00:47:58 46,3542
90 DAVID Jean-Yves M SE   00:47:59 46,8750
91 PERENNES Sylvain M SE   00:48:01 47,3958
92 LE DUFF Michel M SE Jogging Club Douffine (Pont de Buis) 00:48:05 47,9167
93 MALARDE Michel M SE COMBRIT 00:48:23 48,4375
94 POITOU Sylvain M SE Quimper 00:48:40 48,9583
95 LARZUL Jacques M V1 REDERIEN AR BRADEN 00:48:56 49,4792
96 BUISSON Gauthier M ES FOULEES CONCARNOISES 00:48:57 50,0000
97 CHATALIC Claude M SE quimper 00:48:59 50,5208
98 THOMAS Marcel M V1 Quimper 00:49:00 51,0417
99 CALVEZ Michel M V2 ploneis 00:49:05 51,5625
100 MONOYEZ Christelle F SE AL CROZON 00:49:12 52,0833
101 LANNURIEN Stéphane M SE REDERIEN AR BRADEN 00:49:14 52,6042
102 SARIGNAC Charly M SE loctudy 00:49:14 53,1250
103 NEDELEC CLAUDE M V1 TIPIAK 00:49:16 53,6458
104 ANDRE Stéphane M V1 Quimper 00:49:17 54,1667
105 LE PAPE David M SE PLONEOUR FOOTING CLUB 00:49:22 54,6875
106 POUPON Michel M V1 Quimper 00:49:24 55,2083
107 TOULEMONT Patrice M SE COMBRIT 00:49:26 55,7292
108 LOREC Cecile F SE CAB 00:49:27 56,2500
109 COSQUERIC Andre M V2 Quimper 00:49:29 56,7708
110 BIDON Daniel M V2 combrit 00:49:31 57,2917
111 QUEMERE JEAN LUC M SE St Evarzec 00:49:34 57,8125
112 JAOUEN Romain M SE HMI grande cuisine 00:50:00 58,3333
113 KERC'HROM MYRIAM F SE COURIR a CHATEAULIN 00:50:29 58,8542
114 JOINTRE Pascal M V1 Foulées nature de Guengat 00:50:31 59,3750
115 LE DON Jean-Paul M SE CONCARNEAU 00:50:32 59,8958
116 LE JOLY THIERRY M SE St Evarzec 00:50:33 60,4167
117 BOURHIS Nathalie F ES Vannes Athlé 00:50:35 60,9375
118 PENVERN Isabelle F SE melgven 00:50:50 61,4583
119 PENVERN Frédéric M SE POMPIER DE CONCARNEAU 00:50:56 61,9792
120 POULIQUEN Rémy M V2 REDERIEN AR BRADEN 00:50:57 62,5000
121 LE QUINTREC Gilbert M V2   00:51:05 63,0208
122 BUISSON Gérard M V2 FOULEES CONCARNOISES 00:51:06 63,5417
123 LE DONGE Jean-Luc M V1 Foulées nature de Guengat 00:51:06 64,0625
124 LEVASSEUR Gildas M SE CONCARNEAU 00:51:06 64,5833
125 LE DOARE Dominique F SE quimper 00:51:10 65,1042
126 LE PAPE Alain M SE PLONEOUR FOOTING CLUB 00:51:25 65,6250
127 LARZUL Jean Jacques M V1 pluguffan 00:51:30 66,1458
128 HUIBAN RAYMOND M V3 FOULEES CONCARNOISES 00:51:48 66,6667
129 GUYADER Sébastien M SE briec 00:51:58 67,1875
130 BERNARD Jean Luc M V2 Amicale CG29 00:52:04 67,7083
131 LAURENT Bruno M V1 CAB 00:52:08 68,2292
132 LE REUN Pascal M V1 FAR Loctudy 00:52:11 68,7500
133 PETIBON CHRISTIAN M V2 REDERIEN AR BRADEN 00:52:22 69,2708
134 TREGARO François M V2 Courir ensemble. PLOMELIN 00:52:39 69,7917
135 LE BRUN STEPHANE M V1 TIPIAK 00:53:00 70,3125
136 WATERLOOS Pierre Yves M V2 REDERIEN AR BRADEN 00:53:01 70,8333
137 THOMAS Jean Yves M SE pluguffan 00:53:15 71,3542
138 SOLER Viviane F V2 AL CROZON 00:53:16 71,8750
139 LE BIGOT Daniel M V2 Quimper 00:53:18 72,3958
140 LE CORRE Denis M SE quimper 00:53:23 72,9167
141 PLOUZENNEC Pascal M SE quimper 00:53:24 73,4375
142 KERVERN Georges M V2 REDERIEN AR BRADEN 00:53:29 73,9583
143 RENEVOT Angelique F SE REDERIEN AR BRADEN 00:53:40 74,4792
144 BOZEC Pascal M SE Quimper 00:53:50 75,0000
145 PERON Annie F V1 REDERIEN AR BRADEN 00:54:06 75,5208
146 PERON GERARD M V1 REDERIEN AR BRADEN 00:54:17 76,0417
147 NEDELEC Yves M V2 Quimper 00:54:18 76,5625
148 BLANCHARD Jean Pierre M V1 quimper 00:54:21 77,0833
149 LE FLOCH Pascal M SE plomeur 00:54:22 77,6042
150 SIMON Joelle F V1 Randdouarmor 00:54:27 78,1250
151 SIMON Daniel M V1 Rand douar mor 00:54:40 78,6458
152 PINCEMIN Benoit M SE Foulées nature de Guengat 00:54:41 79,1667
153 LE CORRE Jérémy M ES la foret fouesnant 00:54:48 79,6875
154 SOURON Annie F V2 REDERIEN AR BRADEN 00:55:04 80,2083
155 PERNES Gilbert M V1 CAB 00:55:07 80,7292
156 HEMERY Christian M SE Landrévarzec 00:55:08 81,2500
157 BIZIEN Bruno M SE LANDERNEAU 00:55:15 81,7708
158 CLEMENT Vincent M V4 CAB 00:55:16 82,2917
159 ROUSSEL Franck M V1 quimper 00:55:36 82,8125
160 GARREC André M V2 FOULEES VARZECOISES 00:55:43 83,3333
161 FLOCH Jean Yves M V2 TIPIAK 00:55:51 83,8542
162 COADIC Gerard M V2 FOULEES VARZECOISES 00:56:46 84,3750
163 LE BORGNE Emile M V3 PLOGONNEC 00:56:53 84,8958
164 GOURMELEN Martine F V1 le juch 00:57:28 85,4167
165 GOURMELEN Julien M V2 le juch 00:57:46 85,9375
166 HELIAS Rodolphe M V1 REDERIEN AR BRADEN 00:57:47 86,4583
167 BARBE Arnaud M SE Quimper 00:58:06 86,9792
168 PICHON Daniel M V2 SAINT NIC 00:58:14 87,5000
169 LE FLOCH Jean-Pierre M V2 FOULEES VARZECOISES 00:58:16 88,0208
170 PICARD Jean Yves M SE lanriec 00:58:27 88,5417
171 GUILLERMO Patrick M V2 pleyben 00:58:41 89,0625
172 LE RESTE Claire F JU La Foret Fouesnant 00:58:46 89,5833
173 IDOUX Guylaine F V2 REDERIEN AR BRADEN 00:58:47 90,1042
174 LEON Bernard M V2 Quimper 00:59:01 90,6250
175 GUY Lucie F JU CAB 00:59:07 91,1458
176 GUEGUEN Esther F SE CAB 00:59:16 91,6667
177 LAGADIC Laurence F SE AL CROZON 00:59:18 92,1875
178 STERVINOU Jean Francois M V2 GALOUPERIEN BRIEC 01:00:11 92,7083
179 BIZIEN Jean Paul M SE Jogging Club Douffine (Pont de Buis) 01:00:15 93,2292
180 KERMOAL Yvon M V1 quimper 01:00:43 93,7500
181 BOTHOREL Pierre M V2 Quimper 01:00:44 94,2708
182 LE MEUR Vincent M SE PLONEOUR FOOTING CLUB 01:01:12 94,7917
183 VICHON Valerie F SE Foulées nature de Guengat 01:01:23 95,3125
184 KERHOAS Evelyne F V1 Jogging Club Douffine (Pont de Buis) 01:01:42 95,8333
185 JEGAT Michel M V1 AL CROZON 01:01:44 96,3542
186 FERTIL Patricia F SE Les Foulées Nature Gwengat 01:03:29 96,8750
187 JADE Christine F V2 beuzec cap sizun 01:04:06 97,3958
188 GOURMELEN Florence F V1 Foulées nature de Guengat 01:04:59 97,9167
189 LE HENAFF ALBERT M V3 quimper 01:05:12 98,4375
190 MORVAN Jean-Jacques M V2 Quimper 01:06:19 98,9583
191 RUAUD Celine F SE briec 01:06:20 99,4792
192 GILET Claude M V4 LOCQUIREC 01:07:12 100,0000